createdAt,value
2022-11-14T05:04:36.667Z,1.10
2022-11-14T05:07:04.825Z,1.20
2022-11-14T05:09:32.968Z,1.70
2022-11-14T05:12:01.018Z,2.00
2022-11-14T05:14:29.090Z,2.00
2022-11-14T05:16:57.526Z,1.60
2022-11-14T05:19:26.687Z,1.40
2022-11-14T05:21:56.286Z,1.30
2022-11-14T05:24:24.288Z,1.40
2022-11-14T05:26:52.309Z,1.10
2022-11-14T05:29:21.422Z,1.30
2022-11-14T05:31:49.445Z,1.30
2022-11-14T05:34:17.972Z,1.10
2022-11-14T05:36:46.111Z,1.10
2022-11-14T05:39:15.564Z,0.90
2022-11-14T05:41:43.789Z,1.10
2022-11-14T05:44:12.100Z,1.10
2022-11-14T05:46:40.175Z,1.20
2022-11-14T05:49:08.223Z,1.20
2022-11-14T05:51:36.265Z,1.40
2022-11-14T05:54:04.724Z,1.50
2022-11-14T05:56:34.217Z,1.70
2022-11-14T05:59:02.217Z,2.10
2022-11-14T06:01:30.338Z,2.30
2022-11-14T06:03:58.419Z,2.40
2022-11-14T06:06:26.596Z,2.40
2022-11-14T06:08:54.740Z,2.00
2022-11-14T06:11:23.152Z,1.50
2022-11-14T06:13:53.175Z,1.30
2022-11-14T06:16:22.168Z,1.20
2022-11-14T06:18:50.169Z,1.00
2022-11-14T06:21:19.559Z,1.00
2022-11-14T06:23:48.175Z,1.20
2022-11-14T06:26:21.801Z,1.10
2022-11-14T06:28:50.120Z,1.20
2022-11-14T06:31:20.052Z,0.90
2022-11-14T06:33:48.840Z,1.30
2022-11-14T06:36:17.539Z,1.10
2022-11-14T06:38:46.090Z,1.40
2022-11-14T06:41:15.420Z,1.20
2022-11-14T06:43:44.574Z,1.10
2022-11-14T06:46:13.804Z,1.00
2022-11-14T06:48:44.039Z,0.90
2022-11-14T06:51:13.459Z,1.00
2022-11-14T06:53:42.011Z,1.20
2022-11-14T06:56:15.295Z,1.00
2022-11-14T06:58:44.583Z,1.10
2022-11-14T07:01:14.231Z,1.00
2022-11-14T07:03:44.216Z,1.00
2022-11-14T07:06:13.582Z,1.10
2022-11-14T07:08:41.665Z,1.00
2022-11-14T07:11:11.025Z,0.90
2022-11-14T07:13:39.911Z,0.80
2022-11-14T07:16:08.739Z,0.80
2022-11-14T07:18:36.756Z,0.90
2022-11-14T07:21:07.568Z,0.80
2022-11-14T07:23:36.503Z,1.00
2022-11-14T07:26:05.040Z,1.40
2022-11-14T07:28:33.315Z,1.40
2022-11-14T07:31:03.923Z,1.20
2022-11-14T07:33:32.501Z,1.20
2022-11-14T07:36:00.732Z,1.50
2022-11-14T07:38:32.221Z,1.90
2022-11-14T07:41:01.896Z,2.10
2022-11-14T07:43:30.234Z,1.90
2022-11-14T07:46:00.458Z,1.40
2022-11-14T07:48:29.046Z,1.50
2022-11-14T07:50:59.928Z,1.40
2022-11-14T07:53:29.684Z,1.40
2022-11-14T07:55:58.217Z,1.60
2022-11-14T07:58:26.389Z,1.80
2022-11-14T08:00:54.563Z,1.80
2022-11-14T08:03:22.746Z,2.10
2022-11-14T08:05:50.916Z,2.30
2022-11-14T08:08:19.059Z,2.10
2022-11-14T08:10:48.564Z,2.10
2022-11-14T08:13:31.791Z,2.30
2022-11-14T08:16:07.940Z,2.20
2022-11-14T08:18:39.513Z,2.20
2022-11-14T08:21:08.159Z,2.20
2022-11-14T08:23:36.377Z,2.40
2022-11-14T08:26:06.016Z,2.60
2022-11-14T08:28:34.418Z,2.80
2022-11-14T08:31:02.912Z,2.70
2022-11-14T08:33:31.680Z,2.50
2022-11-14T08:36:02.988Z,2.60
2022-11-14T08:38:33.542Z,2.60
2022-11-14T08:41:04.284Z,2.60
2022-11-14T08:43:35.188Z,2.60
2022-11-14T08:46:06.606Z,2.80
2022-11-14T08:48:35.142Z,2.80
2022-11-14T08:51:08.034Z,2.90
2022-11-14T08:53:36.414Z,2.90
2022-11-14T08:56:05.265Z,3.10
2022-11-14T08:58:35.334Z,3.10
2022-11-14T09:01:05.188Z,3.20
2022-11-14T09:03:34.131Z,3.30
2022-11-14T09:06:03.673Z,3.30
2022-11-14T09:08:32.542Z,3.40
2022-11-14T09:11:09.240Z,3.50
2022-11-14T09:13:39.840Z,3.60
2022-11-14T09:16:09.859Z,3.60
2022-11-14T09:18:38.277Z,3.80
2022-11-14T09:21:07.992Z,3.90
2022-11-14T09:23:37.130Z,4.10
2022-11-14T09:26:06.388Z,4.20
2022-11-14T09:28:37.492Z,4.20
2022-11-14T09:31:09.625Z,4.30
2022-11-14T09:33:38.227Z,4.50
2022-11-14T09:36:09.156Z,4.70
2022-11-14T09:38:38.887Z,4.90
2022-11-14T09:41:21.924Z,5.00
2022-11-14T09:44:06.289Z,5.10
2022-11-14T09:46:41.513Z,5.30
2022-11-14T09:49:37.593Z,5.50
2022-11-14T09:52:13.645Z,5.50
2022-11-14T09:54:47.468Z,6.00
2022-11-14T09:57:18.081Z,6.20
2022-11-14T09:59:49.699Z,6.50
2022-11-14T10:02:35.934Z,6.60
2022-11-14T10:05:26.610Z,6.80
2022-11-14T10:08:08.215Z,6.80
2022-11-14T10:10:52.777Z,6.80
2022-11-14T10:13:39.389Z,6.90
2022-11-14T10:16:14.170Z,6.90
2022-11-14T10:19:00.444Z,6.90
2022-11-14T10:21:39.626Z,7.00
2022-11-14T10:24:21.153Z,7.00
2022-11-14T10:26:56.149Z,7.10
2022-11-14T10:29:50.045Z,7.30
2022-11-14T10:32:26.478Z,7.30
2022-11-14T10:35:02.480Z,7.40
2022-11-14T10:37:35.027Z,7.50
2022-11-14T10:40:15.673Z,7.60
2022-11-14T10:42:48.228Z,7.60
2022-11-14T10:45:21.145Z,7.60
2022-11-14T10:47:53.960Z,7.60
2022-11-14T10:50:27.555Z,7.70
2022-11-14T10:53:00.420Z,7.70
2022-11-14T10:55:50.044Z,7.70
2022-11-14T10:58:18.256Z,7.70
2022-11-14T11:00:46.919Z,7.80
2022-11-14T11:03:15.936Z,7.80
2022-11-14T11:05:51.541Z,7.80
2022-11-14T11:08:43.657Z,7.90
2022-11-14T11:11:33.953Z,7.90
2022-11-14T11:14:03.583Z,8.00
2022-11-14T11:16:37.466Z,8.10
2022-11-14T11:19:27.598Z,8.10
2022-11-14T11:21:59.015Z,8.10
2022-11-14T11:24:32.981Z,8.20
2022-11-14T11:27:24.977Z,8.30
2022-11-14T11:30:09.983Z,8.30
2022-11-14T11:32:38.697Z,8.40
2022-11-14T11:35:12.531Z,8.50
2022-11-14T11:37:45.869Z,8.60
2022-11-14T11:40:23.021Z,8.60
2022-11-14T11:45:47.976Z,8.70
2022-11-14T11:48:19.239Z,9.00
2022-11-14T11:50:48.063Z,9.00
2022-11-14T11:53:25.722Z,9.10
2022-11-14T11:55:58.305Z,9.20
2022-11-14T11:58:33.538Z,9.30
2022-11-14T12:01:02.019Z,9.30
2022-11-14T12:03:30.967Z,9.40
2022-11-14T12:06:05.667Z,9.40
2022-11-14T12:08:39.611Z,9.40
2022-11-14T12:11:14.643Z,9.50
2022-11-14T12:14:08.267Z,9.50
2022-11-14T12:16:59.402Z,9.60
2022-11-14T12:20:01.537Z,9.50
2022-11-14T12:23:03.119Z,9.50
2022-11-14T12:25:42.882Z,9.60
2022-11-14T12:28:20.948Z,9.60
2022-11-14T12:30:52.876Z,9.70
2022-11-14T12:33:28.272Z,9.70
2022-11-14T12:35:59.298Z,9.70
2022-11-14T12:38:28.722Z,9.70
2022-11-14T12:41:01.528Z,9.70
2022-11-14T12:43:42.616Z,9.70
2022-11-14T12:46:13.066Z,9.70
2022-11-14T12:48:45.229Z,9.70
2022-11-14T12:51:51.365Z,9.70
2022-11-14T12:54:44.391Z,9.70
2022-11-14T12:57:38.868Z,9.80
2022-11-14T13:00:10.142Z,9.80
2022-11-14T13:03:20.447Z,9.80
2022-11-14T13:05:57.396Z,9.80
2022-11-14T13:08:50.773Z,9.80
2022-11-14T13:11:50.113Z,9.80
2022-11-14T13:14:38.508Z,9.80
2022-11-14T13:17:43.239Z,9.80
2022-11-14T13:20:47.984Z,9.80
2022-11-14T13:23:56.081Z,9.80
2022-11-14T13:26:47.487Z,9.70
2022-11-14T13:29:57.806Z,9.80
2022-11-14T13:32:58.602Z,9.70
2022-11-14T13:35:50.578Z,9.70
2022-11-14T13:39:07.737Z,9.70
2022-11-14T13:42:06.998Z,9.70
2022-11-14T13:44:59.649Z,9.70
2022-11-14T13:48:09.062Z,9.70
2022-11-14T13:50:40.633Z,9.70
2022-11-14T13:53:16.617Z,9.70
2022-11-14T13:56:14.357Z,9.70
2022-11-14T13:59:16.525Z,9.70
2022-11-14T14:01:53.338Z,9.70
2022-11-14T14:04:32.257Z,9.80
2022-11-14T14:07:12.279Z,9.80
2022-11-14T14:09:45.394Z,9.80
2022-11-14T14:12:28.765Z,9.70
2022-11-14T14:15:18.544Z,9.70
2022-11-14T14:17:54.926Z,9.60
2022-11-14T14:20:33.853Z,9.60
2022-11-14T14:23:14.220Z,9.60
2022-11-14T14:25:47.046Z,9.60
2022-11-14T14:28:22.520Z,9.60
2022-11-14T14:31:10.291Z,9.60
2022-11-14T14:33:43.028Z,9.60
2022-11-14T14:36:23.886Z,9.70
2022-11-14T14:39:09.051Z,9.60
2022-11-14T14:41:37.934Z,9.60
2022-11-14T14:44:06.628Z,9.60
2022-11-14T14:46:35.032Z,9.60
2022-11-14T14:49:05.578Z,9.50
2022-11-14T14:51:37.347Z,9.50
2022-11-14T14:54:08.069Z,9.50
2022-11-14T14:56:36.270Z,9.50
2022-11-14T14:59:17.879Z,9.40
2022-11-14T15:01:46.994Z,9.40
2022-11-14T15:04:17.342Z,9.40
2022-11-14T15:06:47.904Z,9.40
2022-11-14T15:09:20.251Z,9.40
2022-11-14T15:11:51.497Z,9.40
2022-11-14T15:14:22.558Z,9.40
2022-11-14T15:16:51.611Z,9.30
2022-11-14T15:19:21.969Z,9.30
2022-11-14T15:22:04.645Z,9.30
2022-11-14T15:24:34.579Z,9.20
2022-11-14T15:27:06.228Z,9.30
2022-11-14T15:29:36.023Z,9.20
2022-11-14T15:32:05.866Z,9.20
2022-11-14T15:34:35.982Z,9.20
2022-11-14T15:37:24.118Z,9.20
2022-11-14T15:39:55.803Z,9.10
2022-11-14T15:42:30.083Z,9.10
2022-11-14T15:44:59.627Z,9.10
2022-11-14T15:47:30.421Z,9.10
2022-11-14T15:50:04.352Z,9.10
2022-11-14T15:52:36.849Z,9.10
2022-11-14T15:55:15.061Z,9.10
2022-11-14T15:57:51.716Z,9.10
2022-11-14T16:00:24.910Z,9.10
2022-11-14T16:02:56.015Z,9.10
2022-11-14T16:05:27.979Z,9.10
2022-11-14T16:07:57.580Z,9.00
2022-11-14T16:10:29.663Z,9.00
2022-11-14T16:12:59.214Z,9.00
2022-11-14T16:15:27.854Z,9.00
2022-11-14T16:17:56.977Z,9.00
2022-11-14T16:20:26.906Z,9.00
2022-11-14T16:22:57.216Z,9.00
2022-11-14T16:25:29.862Z,9.00
2022-11-14T16:27:58.603Z,9.00
2022-11-14T16:30:28.074Z,8.90
2022-11-14T16:32:56.943Z,8.90
2022-11-14T16:35:27.250Z,8.90
2022-11-14T16:37:56.332Z,8.90
2022-11-14T16:40:29.874Z,8.90
2022-11-14T16:43:01.477Z,8.90
2022-11-14T16:45:31.212Z,8.90
2022-11-14T16:47:59.806Z,8.90
2022-11-14T16:50:28.316Z,8.90
2022-11-14T16:52:56.646Z,8.90
2022-11-14T16:55:26.832Z,8.90
2022-11-14T16:57:55.855Z,8.90
2022-11-14T17:00:24.632Z,8.90
2022-11-14T17:02:54.414Z,8.80
2022-11-14T17:05:23.132Z,8.80
2022-11-14T17:07:51.624Z,8.80
2022-11-14T17:10:20.741Z,8.80
2022-11-14T17:12:51.042Z,8.80
2022-11-14T17:15:19.622Z,8.80
2022-11-14T17:17:50.315Z,8.80
2022-11-14T17:20:18.816Z,8.80
2022-11-14T17:22:47.841Z,8.80
2022-11-14T17:25:16.060Z,8.80
2022-11-14T17:27:44.510Z,8.80
2022-11-14T17:30:17.371Z,8.80
2022-11-14T17:32:46.276Z,8.80
2022-11-14T17:35:16.059Z,8.80
2022-11-14T17:37:44.466Z,8.80
2022-11-14T17:40:15.730Z,8.80
2022-11-14T17:42:45.815Z,8.80
2022-11-14T17:45:15.830Z,8.80
2022-11-14T17:47:44.834Z,8.80
2022-11-14T17:50:14.278Z,8.80
2022-11-14T17:52:42.838Z,8.80
2022-11-14T17:55:18.954Z,8.80
2022-11-14T17:57:47.962Z,8.80
2022-11-14T18:00:20.567Z,8.80
2022-11-14T18:02:48.940Z,8.80
2022-11-14T18:05:17.695Z,8.80
2022-11-14T18:07:46.997Z,8.80
2022-11-14T18:10:16.399Z,8.80
2022-11-14T18:12:46.500Z,8.80
2022-11-14T18:15:15.346Z,8.80
2022-11-14T18:17:45.458Z,8.80
2022-11-14T18:20:15.286Z,8.80
2022-11-14T18:22:44.229Z,8.80
2022-11-14T18:25:13.714Z,8.80
2022-11-14T18:27:42.461Z,8.80
2022-11-14T18:30:39.891Z,8.80
2022-11-14T18:33:04.188Z,8.80
2022-11-14T18:35:32.854Z,8.80
2022-11-14T18:38:03.079Z,8.80
2022-11-14T18:40:31.581Z,8.80
2022-11-14T18:42:59.685Z,8.80
2022-11-14T18:45:29.449Z,8.80
2022-11-14T18:47:57.615Z,8.80
2022-11-14T18:50:28.690Z,8.80
2022-11-14T18:52:57.328Z,8.80
2022-11-14T18:55:25.779Z,8.80
2022-11-14T18:57:56.626Z,8.80
2022-11-14T19:00:25.217Z,8.80
2022-11-14T19:02:54.939Z,8.80
2022-11-14T19:05:24.677Z,8.80
2022-11-14T19:07:55.905Z,8.80
2022-11-14T19:10:25.396Z,8.90
2022-11-14T19:12:56.130Z,8.90
2022-11-14T19:15:26.919Z,8.80
2022-11-14T19:17:55.124Z,8.80
2022-11-14T19:20:24.783Z,8.80
2022-11-14T19:22:55.431Z,8.80
2022-11-14T19:25:23.630Z,8.80
2022-11-14T19:27:52.304Z,8.80
2022-11-14T19:30:21.762Z,8.80
2022-11-14T19:32:50.050Z,8.80
2022-11-14T19:35:20.737Z,8.80
2022-11-14T19:37:50.551Z,8.80
2022-11-14T19:40:21.379Z,8.80
2022-11-14T19:42:49.692Z,8.80
2022-11-14T19:45:34.963Z,8.80
2022-11-14T19:48:04.304Z,8.70
2022-11-14T19:50:34.459Z,8.70
2022-11-14T19:53:04.172Z,8.70
2022-11-14T19:55:35.108Z,8.60
2022-11-14T19:58:07.230Z,8.60
2022-11-14T20:00:35.375Z,8.50
2022-11-14T20:03:04.807Z,8.50
2022-11-14T20:05:34.215Z,8.50
2022-11-14T20:08:02.822Z,8.50
2022-11-14T20:10:31.663Z,8.50
2022-11-14T20:13:01.658Z,8.40
2022-11-14T20:15:34.282Z,8.40
2022-11-14T20:18:03.018Z,8.30
2022-11-14T20:20:31.223Z,8.30
2022-11-14T20:22:59.603Z,8.30
2022-11-14T20:25:28.521Z,8.30
2022-11-14T20:28:01.531Z,8.10
2022-11-14T20:30:31.453Z,8.00
2022-11-14T20:33:00.204Z,8.00
2022-11-14T20:35:29.333Z,8.00
2022-11-14T20:38:03.229Z,8.00
2022-11-14T20:40:33.201Z,8.00
2022-11-14T20:43:13.131Z,7.90
2022-11-14T20:45:43.199Z,7.90
2022-11-14T20:48:12.081Z,7.70
2022-11-14T20:50:40.587Z,7.70
2022-11-14T20:53:09.479Z,7.80
2022-11-14T20:55:38.089Z,7.80
2022-11-14T20:58:09.026Z,7.80
2022-11-14T21:00:38.426Z,7.60
2022-11-14T21:03:11.343Z,7.60
2022-11-14T21:05:40.566Z,7.70
2022-11-14T21:08:09.227Z,7.70
2022-11-14T21:10:48.111Z,7.60
2022-11-14T21:13:37.895Z,7.70
2022-11-14T21:16:09.029Z,7.60
2022-11-14T21:18:42.794Z,7.50
2022-11-14T21:21:17.021Z,7.50
2022-11-14T21:23:48.806Z,7.50
2022-11-14T21:26:18.848Z,7.40
2022-11-14T21:28:48.807Z,7.40
2022-11-14T21:31:19.167Z,7.40
2022-11-14T21:33:50.677Z,7.40
2022-11-14T21:36:43.742Z,7.30
2022-11-14T21:39:14.950Z,7.30
2022-11-14T21:41:44.352Z,7.40
2022-11-14T21:44:14.707Z,7.40
2022-11-14T21:46:43.059Z,7.50
2022-11-14T21:49:14.661Z,7.50
2022-11-14T21:51:43.090Z,7.50
2022-11-14T21:54:11.250Z,7.50
2022-11-14T21:56:39.681Z,7.50
2022-11-14T21:59:19.079Z,7.60
2022-11-14T22:02:06.418Z,7.60
2022-11-14T22:04:37.078Z,7.70
2022-11-14T22:07:07.380Z,7.70
2022-11-14T22:09:45.154Z,7.70
2022-11-14T22:12:13.892Z,7.70
2022-11-14T22:14:42.139Z,7.80
2022-11-14T22:17:10.739Z,7.90
2022-11-14T22:19:40.905Z,8.00
2022-11-14T22:22:11.358Z,8.00
2022-11-14T22:24:39.995Z,8.10
2022-11-14T22:27:08.152Z,8.20
2022-11-14T22:29:37.932Z,8.20
2022-11-14T22:32:06.692Z,8.20
2022-11-14T22:34:35.146Z,8.30
2022-11-14T22:37:05.445Z,8.30
2022-11-14T22:39:34.028Z,8.40
2022-11-14T22:42:02.966Z,8.50
2022-11-14T22:44:31.475Z,8.40
2022-11-14T22:47:00.688Z,8.60
2022-11-14T22:49:29.046Z,8.60
